Time;durP1;ratioP1;P1;durP2;ratioP2;P2;SDS_P1;SDS_P2;PMS_P1;PMS_P2;Temp;Humidity;BMP_temperature;BMP_pressure;BME280_temperature;BME280_humidity;BME280_pressure;Samples;Min_cycle;Max_cycle;Signal;HPM_P1;HPM_P2
2021/12/07 00:02:00;;;;;;;26.52;6.72;;;5.10;99.90;;;;;;5097874;28;20051;-62
2021/12/07 00:04:26;;;;;;;30.38;6.32;;;5.10;99.90;;;;;;5097340;28;20435;-62
2021/12/07 00:06:52;;;;;;;29.73;6.72;;;5.20;99.90;;;;;;5097095;28;20256;-62
2021/12/07 00:09:18;;;;;;;33.63;6.57;;;5.30;99.90;;;;;;5097671;28;20032;-63
2021/12/07 00:11:47;;;;;;;23.33;6.45;;;5.30;99.90;;;;;;5097706;28;20032;-62
2021/12/07 00:14:13;;;;;;;22.13;5.75;;;5.30;99.90;;;;;;5096972;28;20056;-62
2021/12/07 00:16:44;;;;;;;29.20;6.05;;;5.30;99.90;;;;;;5097745;28;20071;-62
2021/12/07 00:19:11;;;;;;;25.50;5.55;;;5.40;99.90;;;;;;5097280;28;20293;-63
2021/12/07 00:21:39;;;;;;;30.40;5.07;;;5.50;99.90;;;;;;5097435;28;20024;-63
2021/12/07 00:24:06;;;;;;;33.50;6.30;;;5.50;99.90;;;;;;5097406;28;20036;-63
2021/12/07 00:26:32;;;;;;;20.95;4.72;;;5.50;99.90;;;;;;5097335;28;20051;-62
2021/12/07 00:28:59;;;;;;;23.63;4.88;;;5.70;99.90;;;;;;5097272;28;20422;-62
2021/12/07 00:31:34;;;;;;;22.83;5.07;;;5.80;99.90;;;;;;5096479;28;20031;-61
2021/12/07 00:34:19;;;;;;;20.80;4.35;;;6.00;99.90;;;;;;5096612;28;20036;-61
2021/12/07 00:36:47;;;;;;;24.02;4.45;;;6.00;99.90;;;;;;5096463;28;20024;-61
2021/12/07 00:39:16;;;;;;;19.73;4.35;;;6.00;99.90;;;;;;5097541;28;20085;-63
2021/12/07 00:41:42;;;;;;;19.83;3.70;;;6.00;99.90;;;;;;5096318;28;20109;-61
2021/12/07 00:44:09;;;;;;;18.65;3.80;;;6.00;99.90;;;;;;5097134;28;20020;-63
2021/12/07 00:46:35;;;;;;;13.60;3.53;;;5.90;99.90;;;;;;5096405;28;20032;-63
2021/12/07 00:49:03;;;;;;;16.70;3.70;;;5.80;99.90;;;;;;5097128;28;20024;-62
2021/12/07 00:51:29;;;;;;;16.95;3.33;;;5.80;99.90;;;;;;5096635;28;20109;-62
2021/12/07 00:53:55;;;;;;;22.17;4.53;;;5.80;99.90;;;;;;5097112;28;20260;-62
2021/12/07 00:56:22;;;;;;;22.45;4.20;;;5.80;99.90;;;;;;5096155;28;20020;-63
2021/12/07 00:58:51;;;;;;;14.77;3.47;;;5.70;99.90;;;;;;5096909;28;20032;-63
2021/12/07 01:01:18;;;;;;;17.23;3.95;;;5.70;99.90;;;;;;5096104;28;20369;-63
2021/12/07 01:03:45;;;;;;;24.75;4.30;;;5.80;99.90;;;;;;5096218;28;20036;-62
2021/12/07 01:06:27;;;;;;;18.42;3.53;;;5.90;99.90;;;;;;5096999;28;20107;-62
2021/12/07 01:25:13;;;;;;;12.45;2.47;;;6.00;99.90;;;;;;5100006;28;20119;-62
2021/12/07 01:27:39;;;;;;;10.27;2.58;;;5.90;99.90;;;;;;5083182;28;20139;-62
2021/12/07 01:30:17;;;;;;;13.18;2.45;;;5.80;99.90;;;;;;5100988;28;20032;-62
2021/12/07 01:41:00;;;;;;;14.68;2.33;;;5.90;99.90;;;;;;5099708;28;20128;-62
2021/12/07 01:46:33;;;;;;;16.00;2.30;;;5.80;99.90;;;;;;5099695;28;20089;-63
2021/12/07 01:59:36;;;;;;;13.07;2.28;;;5.60;99.90;;;;;;5085022;28;20070;-62
2021/12/07 02:02:08;;;;;;;19.48;2.72;;;5.50;99.90;;;;;;5100260;28;20036;-61
2021/12/07 02:04:35;;;;;;;16.92;3.45;;;5.50;99.90;;;;;;5100305;28;20403;-62
2021/12/07 02:07:00;;;;;;;12.35;2.63;;;5.60;99.90;;;;;;5099320;28;20020;-63
2021/12/07 02:09:26;;;;;;;19.73;3.95;;;5.60;99.90;;;;;;5099444;28;20119;-62
2021/12/07 02:11:59;;;;;;;21.55;4.50;;;5.60;99.90;;;;;;5099074;28;20036;-62
2021/12/07 02:14:26;;;;;;;24.98;3.88;;;5.60;99.90;;;;;;5099171;28;20035;-61
2021/12/07 02:16:55;;;;;;;22.95;3.70;;;5.30;99.90;;;;;;5099936;28;20397;-60
2021/12/07 02:19:22;;;;;;;23.17;3.72;;;5.30;99.90;;;;;;5099259;28;20036;-62
2021/12/07 02:21:48;;;;;;;13.48;3.22;;;5.30;99.90;;;;;;5099049;28;20028;-62
2021/12/07 02:24:20;;;;;;;15.07;2.70;;;5.30;99.90;;;;;;5100299;28;20036;-63
2021/12/07 02:26:47;;;;;;;18.48;3.20;;;5.20;99.90;;;;;;5098704;28;20039;-63
2021/12/07 02:29:15;;;;;;;19.88;3.28;;;5.10;99.90;;;;;;5099650;28;20045;-62
2021/12/07 02:31:41;;;;;;;22.75;3.40;;;5.10;99.90;;;;;;5099529;28;20108;-63
2021/12/07 02:34:07;;;;;;;23.15;3.47;;;5.10;99.90;;;;;;5098740;28;20039;-63
2021/12/07 02:36:35;;;;;;;24.58;4.10;;;5.10;99.90;;;;;;5081858;28;20074;-63
2021/12/07 02:39:10;;;;;;;25.45;4.75;;;5.20;99.90;;;;;;5098620;28;20039;-63
2021/12/07 02:41:37;;;;;;;29.55;4.78;;;5.30;99.90;;;;;;5099683;28;20088;-63
2021/12/07 02:44:06;;;;;;;27.23;4.95;;;5.30;99.90;;;;;;5098791;28;20043;-63
2021/12/07 02:46:36;;;;;;;29.05;4.50;;;5.30;99.90;;;;;;5098483;28;20146;-63
2021/12/07 02:49:07;;;;;;;23.55;4.05;;;5.30;99.90;;;;;;5098510;28;20319;-63
2021/12/07 02:51:34;;;;;;;26.30;3.47;;;5.20;99.90;;;;;;5098353;28;20043;-63
2021/12/07 02:54:00;;;;;;;17.88;3.33;;;5.10;99.90;;;;;;5098374;28;20024;-63
2021/12/07 02:56:27;;;;;;;19.40;3.47;;;5.10;99.90;;;;;;5098326;28;20039;-62
2021/12/07 02:58:59;;;;;;;19.08;3.38;;;5.10;99.90;;;;;;5099075;28;20063;-63
2021/12/07 03:01:30;;;;;;;;;;;5.10;99.90;;;;;;5098704;28;20039;-63
2021/12/07 03:04:03;;;;;;;11.52;3.30;;;5.00;99.90;;;;;;5098300;28;20245;-63
2021/12/07 03:06:53;;;;;;;13.20;2.70;;;4.80;99.90;;;;;;5098286;28;20028;-63
2021/12/07 03:28:26;;;;;;;11.10;2.50;;;4.70;99.90;;;;;;5097989;28;20032;-61
2021/12/07 03:30:52;;;;;;;11.65;2.80;;;4.70;99.90;;;;;;5098422;28;20031;-64
2021/12/07 03:33:18;;;;;;;13.80;2.75;;;4.70;99.90;;;;;;5098496;28;20041;-63
2021/12/07 03:35:46;;;;;;;14.93;2.83;;;4.60;99.90;;;;;;5097629;28;20028;-65
2021/12/07 03:38:13;;;;;;;16.60;3.33;;;4.60;99.90;;;;;;5097709;28;20028;-62
2021/12/07 03:40:40;;;;;;;13.48;3.33;;;4.50;99.90;;;;;;5097284;28;20424;-62
2021/12/07 03:43:08;;;;;;;16.55;3.45;;;4.50;99.90;;;;;;5097365;28;20174;-62
2021/12/07 03:45:35;;;;;;;17.50;3.15;;;4.50;99.90;;;;;;5098048;28;20032;-62
2021/12/07 03:48:04;;;;;;;14.60;3.00;;;4.60;99.90;;;;;;5098170;28;20177;-62
2021/12/07 03:50:31;;;;;;;22.52;3.30;;;4.60;99.90;;;;;;5097248;28;20023;-61
2021/12/07 03:52:57;;;;;;;17.85;3.50;;;4.70;99.90;;;;;;5098106;28;20150;-62
2021/12/07 03:55:23;;;;;;;15.02;3.05;;;4.70;99.90;;;;;;5097124;28;20047;-62
2021/12/07 03:57:49;;;;;;;13.15;3.13;;;4.70;99.90;;;;;;5097115;28;20020;-63
2021/12/07 04:00:20;;;;;;;13.45;3.38;;;4.80;99.90;;;;;;5097081;28;20036;-62
2021/12/07 04:02:53;;;;;;;11.32;2.97;;;4.80;99.90;;;;;;5097118;28;20111;-62
2021/12/07 04:05:22;;;;;;;12.43;3.40;;;4.70;99.90;;;;;;5097783;28;20043;-63
2021/12/07 04:07:51;;;;;;;17.15;2.97;;;4.60;99.90;;;;;;5096914;28;20035;-63
2021/12/07 04:10:19;;;;;;;13.45;3.10;;;4.60;99.90;;;;;;5096940;28;20071;-63
2021/12/07 04:12:45;;;;;;;10.02;3.00;;;4.60;99.90;;;;;;5080000;28;20281;-63
2021/12/07 04:15:15;;;;;;;14.07;3.10;;;4.50;99.90;;;;;;5080116;28;20024;-63
2021/12/07 04:17:42;;;;;;;13.68;3.20;;;4.40;99.90;;;;;;5097465;28;20119;-63
2021/12/07 04:20:12;;;;;;;18.63;3.83;;;4.40;99.90;;;;;;5080102;28;20028;-63
2021/12/07 04:22:38;;;;;;;18.52;3.53;;;4.40;99.90;;;;;;5079786;28;20024;-62
2021/12/07 04:25:07;;;;;;;13.88;3.03;;;4.40;99.90;;;;;;5097527;28;20377;-63
2021/12/07 04:27:37;;;;;;;13.20;2.65;;;4.40;99.90;;;;;;5097340;28;20036;-62
2021/12/07 04:30:08;;;;;;;22.90;3.45;;;4.40;99.90;;;;;;5097431;28;20032;-63
2021/12/07 04:32:34;;;;;;;16.67;2.95;;;4.40;99.90;;;;;;5097401;28;20093;-62
2021/12/07 04:35:00;;;;;;;15.05;3.70;;;4.40;99.90;;;;;;5098061;28;20066;-63
2021/12/07 04:37:26;;;;;;;15.20;2.97;;;4.40;99.90;;;;;;5097164;28;20046;-61
2021/12/07 04:39:52;;;;;;;12.43;3.03;;;4.40;99.90;;;;;;5097130;28;20035;-62
2021/12/07 04:42:18;;;;;;;11.40;2.67;;;4.40;99.90;;;;;;5096409;28;20039;-63
2021/12/07 04:44:51;;;;;;;13.45;3.10;;;4.40;99.90;;;;;;5097710;28;20080;-63
2021/12/07 04:47:25;;;;;;;16.77;2.80;;;4.40;99.90;;;;;;5096425;28;20395;-63
2021/12/07 04:50:21;;;;;;;14.52;2.53;;;4.40;99.90;;;;;;5096122;28;20040;-62
2021/12/07 04:58:11;;;;;;;13.18;3.00;;;4.20;99.90;;;;;;5097551;28;20036;-63
2021/12/07 05:00:37;;;;;;;11.05;2.75;;;4.10;99.90;;;;;;5097019;28;20345;-63
2021/12/07 05:03:08;;;;;;;13.38;2.80;;;4.00;99.90;;;;;;5096980;28;20032;-63
2021/12/07 05:05:40;;;;;;;14.50;3.00;;;3.90;99.90;;;;;;5096927;28;20044;-63
2021/12/07 05:08:10;;;;;;;10.27;2.35;;;3.80;99.90;;;;;;5097061;28;20110;-63
2021/12/07 05:39:42;;;;;;;10.10;2.88;;;3.60;99.90;;;;;;5096831;28;20299;-63
2021/12/07 05:42:08;;;;;;;7.70;2.80;;;3.50;99.90;;;;;;5096560;28;20060;-63
2021/12/07 05:44:34;;;;;;;15.52;3.67;;;3.40;99.90;;;;;;5097031;28;20028;-62
2021/12/07 05:47:02;;;;;;;10.00;2.85;;;3.40;99.90;;;;;;5079390;28;20028;-62
2021/12/07 05:49:28;;;;;;;7.60;2.50;;;3.40;99.90;;;;;;5096429;28;20020;-62
2021/12/07 05:51:54;;;;;;;9.40;3.00;;;3.40;99.90;;;;;;5096761;28;20120;-63
2021/12/07 05:54:19;;;;;;;16.60;3.58;;;3.30;99.90;;;;;;5095899;28;20028;-63
2021/12/07 05:56:45;;;;;;;12.50;2.92;;;3.30;99.90;;;;;;5096690;28;20295;-62
2021/12/07 05:59:11;;;;;;;16.80;3.00;;;3.40;99.90;;;;;;5095593;28;20046;-63
2021/12/07 06:01:37;;;;;;;12.25;2.88;;;3.40;99.90;;;;;;5098568;28;20350;-63
2021/12/07 06:04:03;;;;;;;10.90;2.83;;;3.30;99.90;;;;;;5099309;28;20036;-62
2021/12/07 06:06:29;;;;;;;14.20;3.63;;;3.30;99.90;;;;;;5099888;28;20047;-62
2021/12/07 06:08:54;;;;;;;13.23;3.90;;;3.30;99.90;;;;;;5099893;28;20032;-63
2021/12/07 06:11:23;;;;;;;10.85;2.75;;;3.20;99.90;;;;;;5099021;28;20036;-63
2021/12/07 06:13:52;;;;;;;10.90;3.35;;;3.20;99.90;;;;;;5100004;28;20063;-63
2021/12/07 06:16:19;;;;;;;15.05;3.10;;;3.20;99.90;;;;;;5099896;28;20391;-62
2021/12/07 06:18:45;;;;;;;12.25;3.00;;;3.20;99.90;;;;;;5099562;28;20071;-63
2021/12/07 06:21:13;;;;;;;8.05;2.65;;;3.20;99.90;;;;;;5099723;28;20128;-63
2021/12/07 06:23:39;;;;;;;14.82;2.75;;;3.10;99.90;;;;;;5099775;28;20024;-62
2021/12/07 06:26:05;;;;;;;11.38;2.95;;;3.10;99.90;;;;;;5098939;28;20401;-62
2021/12/07 06:28:31;;;;;;;12.70;2.80;;;3.10;99.90;;;;;;5099603;28;20034;-62
2021/12/07 06:30:57;;;;;;;9.98;3.08;;;3.10;99.90;;;;;;5098882;28;20097;-62
2021/12/07 06:33:25;;;;;;;13.32;3.10;;;3.10;99.90;;;;;;5099564;28;20024;-62
2021/12/07 06:35:58;;;;;;;10.55;3.10;;;3.10;99.90;;;;;;5098652;28;20032;-62
2021/12/07 06:38:29;;;;;;;11.52;3.00;;;3.10;99.90;;;;;;5100111;28;20078;-63
2021/12/07 06:40:56;;;;;;;12.50;2.60;;;3.00;99.90;;;;;;5099313;28;20047;-63
2021/12/07 06:43:22;;;;;;;10.63;2.70;;;3.00;99.90;;;;;;5099385;28;20050;-62
2021/12/07 06:45:49;;;;;;;13.70;2.75;;;3.00;99.90;;;;;;5099206;28;20024;-62
2021/12/07 06:48:15;;;;;;;11.77;2.47;;;3.00;99.90;;;;;;5098516;28;20024;-63
2021/12/07 06:50:41;;;;;;;14.50;2.50;;;2.90;99.90;;;;;;5099210;28;20060;-63
2021/12/07 06:53:07;;;;;;;13.48;2.75;;;2.90;99.90;;;;;;5099244;28;20088;-63
2021/12/07 06:55:34;;;;;;;14.88;2.63;;;2.90;99.90;;;;;;5099230;28;20032;-63
2021/12/07 06:58:00;;;;;;;13.80;2.90;;;2.90;99.90;;;;;;5099085;28;20032;-63
2021/12/07 07:00:26;;;;;;;12.45;3.15;;;2.80;99.90;;;;;;5099479;28;20035;-63
2021/12/07 07:02:51;;;;;;;14.63;2.65;;;2.80;99.90;;;;;;5098920;28;20299;-63
2021/12/07 07:05:17;;;;;;;13.77;3.45;;;2.90;99.90;;;;;;5099258;28;20024;-64
2021/12/07 07:07:44;;;;;;;11.95;3.42;;;2.80;99.90;;;;;;5098845;28;20032;-63
2021/12/07 07:10:12;;;;;;;9.50;2.85;;;2.80;99.90;;;;;;5098460;28;20036;-63
2021/12/07 07:12:39;;;;;;;17.50;3.00;;;2.80;99.90;;;;;;5097917;28;20032;-63
2021/12/07 07:15:06;;;;;;;13.73;3.30;;;2.80;99.90;;;;;;5098774;28;20040;-63
2021/12/07 07:17:32;;;;;;;12.68;3.05;;;2.80;99.90;;;;;;5098539;28;20323;-63
2021/12/07 07:19:58;;;;;;;12.50;3.22;;;2.80;99.90;;;;;;5098519;28;20127;-63
2021/12/07 07:22:24;;;;;;;11.20;2.78;;;2.80;99.90;;;;;;5081092;28;20028;-63
2021/12/07 07:24:50;;;;;;;9.77;3.25;;;2.70;99.90;;;;;;5098437;28;20025;-63
2021/12/07 07:27:16;;;;;;;13.38;3.38;;;2.70;99.90;;;;;;5098761;28;20046;-63
2021/12/07 07:29:42;;;;;;;8.30;2.95;;;2.70;99.90;;;;;;5098451;28;20024;-63
2021/12/07 07:32:08;;;;;;;12.15;3.33;;;2.70;99.90;;;;;;5098698;28;20028;-63
2021/12/07 07:34:34;;;;;;;18.67;3.40;;;2.60;99.90;;;;;;5098267;28;20032;-63
2021/12/07 07:37:00;;;;;;;13.88;3.95;;;2.60;99.90;;;;;;5098697;28;20036;-62
2021/12/07 07:39:26;;;;;;;9.15;3.17;;;3.00;99.90;;;;;;5098152;28;20418;-62
2021/12/07 07:41:52;;;;;;;11.00;3.42;;;2.80;99.90;;;;;;5098275;28;20059;-62
2021/12/07 07:44:17;;;;;;;12.18;3.65;;;2.70;99.90;;;;;;5097989;28;20077;-62
2021/12/07 07:46:46;;;;;;;11.30;3.47;;;2.60;99.90;;;;;;5097384;28;20040;-62
2021/12/07 07:49:12;;;;;;;15.98;4.32;;;2.60;99.90;;;;;;5080272;28;20032;-65
2021/12/07 07:51:38;;;;;;;11.88;4.13;;;2.60;99.90;;;;;;5097740;28;20036;-62
2021/12/07 07:54:05;;;;;;;15.95;3.50;;;2.70;99.90;;;;;;5098049;28;20273;-62
2021/12/07 07:56:32;;;;;;;14.68;3.72;;;2.70;99.90;;;;;;5097863;28;20028;-63
2021/12/07 07:58:58;;;;;;;12.23;3.75;;;2.70;99.90;;;;;;5096843;28;20039;-62
2021/12/07 08:01:28;;;;;;;11.60;3.50;;;2.70;99.90;;;;;;5096884;28;20287;-63
2021/12/07 08:03:55;;;;;;;10.93;3.70;;;2.70;99.90;;;;;;5097809;28;20291;-63
2021/12/07 08:06:20;;;;;;;12.27;3.65;;;2.60;99.90;;;;;;5096869;28;20402;-62
2021/12/07 08:08:46;;;;;;;12.15;3.40;;;2.70;99.90;;;;;;5096987;28;20032;-63
2021/12/07 08:11:14;;;;;;;12.07;3.10;;;2.60;99.90;;;;;;5096904;28;20085;-63
2021/12/07 08:13:41;;;;;;;11.23;3.22;;;2.60;99.90;;;;;;5096967;28;20040;-63
2021/12/07 08:16:15;;;;;;;11.10;3.45;;;2.60;99.90;;;;;;5097017;28;20054;-63
2021/12/07 08:18:51;;;;;;;17.65;3.25;;;2.70;99.90;;;;;;5096883;28;20036;-63
2021/12/07 08:21:18;;;;;;;12.55;3.45;;;2.70;99.90;;;;;;5096774;28;20298;-63
2021/12/07 08:23:44;;;;;;;12.80;3.05;;;2.70;99.90;;;;;;5096488;28;20036;-63
2021/12/07 08:26:13;;;;;;;12.02;3.05;;;2.70;99.90;;;;;;5096775;28;20024;-63
2021/12/07 08:28:39;;;;;;;8.05;2.78;;;2.70;99.90;;;;;;5097454;28;20036;-62
2021/12/07 08:31:05;;;;;;;11.02;3.28;;;2.80;99.90;;;;;;5096678;28;20461;-63
2021/12/07 08:33:31;;;;;;;16.42;3.50;;;2.80;99.90;;;;;;5097280;28;20035;-63
2021/12/07 08:35:58;;;;;;;14.40;2.90;;;2.80;99.90;;;;;;5097394;28;20047;-63
2021/12/07 08:38:24;;;;;;;12.90;3.58;;;2.80;99.90;;;;;;5097246;28;20067;-63
2021/12/07 08:40:53;;;;;;;19.65;4.43;;;2.80;99.90;;;;;;5097255;28;20044;-63
2021/12/07 08:43:22;;;;;;;14.75;3.78;;;2.80;99.90;;;;;;5097206;28;20028;-63
2021/12/07 08:45:48;;;;;;;13.82;3.90;;;2.80;99.90;;;;;;5097088;28;20028;-62
2021/12/07 08:48:14;;;;;;;17.58;3.97;;;2.90;99.90;;;;;;5097063;28;20036;-64
2021/12/07 08:50:42;;;;;;;15.90;4.03;;;2.90;99.90;;;;;;5096302;28;20036;-61
2021/12/07 08:53:11;;;;;;;19.88;3.33;;;2.90;99.90;;;;;;5096381;28;20112;-63
2021/12/07 09:01:09;;;;;;;12.52;3.20;;;3.00;99.90;;;;;;5096157;28;20040;-63
2021/12/07 09:03:34;;;;;;;15.30;3.50;;;3.00;99.90;;;;;;5096894;28;20036;-64
2021/12/07 09:06:01;;;;;;;12.40;3.40;;;3.00;99.90;;;;;;5096811;28;20170;-64
2021/12/07 09:08:27;;;;;;;14.32;3.25;;;3.10;99.90;;;;;;5096927;28;20346;-63
2021/12/07 09:10:53;;;;;;;15.02;3.70;;;3.10;99.90;;;;;;5096803;28;20031;-64
2021/12/07 09:13:20;;;;;;;16.45;3.78;;;3.10;99.90;;;;;;5096061;28;20043;-64
2021/12/07 09:15:46;;;;;;;11.00;3.97;;;3.20;99.90;;;;;;5096884;28;20040;-63
2021/12/07 09:18:12;;;;;;;13.02;3.22;;;3.30;99.90;;;;;;5096603;28;20044;-64
2021/12/07 09:20:38;;;;;;;12.70;4.00;;;3.30;99.90;;;;;;5096666;28;20307;-64
2021/12/07 09:23:04;;;;;;;9.77;3.42;;;3.40;99.90;;;;;;5097269;28;20107;-64
2021/12/07 09:25:30;;;;;;;16.48;4.07;;;3.50;99.90;;;;;;5096032;28;20043;-63
2021/12/07 09:27:57;;;;;;;13.35;3.40;;;3.50;99.90;;;;;;5096358;28;20440;-63
2021/12/07 09:30:23;;;;;;;17.13;3.65;;;3.60;99.90;;;;;;5095924;28;20039;-63
2021/12/07 09:32:51;;;;;;;20.17;4.18;;;3.60;99.90;;;;;;5096726;28;20353;-64
2021/12/07 09:35:17;;;;;;;18.60;3.72;;;3.70;99.90;;;;;;5096566;28;20093;-64
2021/12/07 09:37:43;;;;;;;16.20;3.90;;;3.80;99.90;;;;;;5099937;28;20071;-63
2021/12/07 09:40:15;;;;;;;11.93;4.63;;;3.90;99.90;;;;;;5100568;28;20059;-63
2021/12/07 09:42:42;;;;;;;16.45;3.67;;;4.20;99.90;;;;;;5099898;28;20036;-64
2021/12/07 09:45:10;;;;;;;15.15;3.63;;;4.40;99.90;;;;;;5099791;28;20043;-64
2021/12/07 09:47:36;;;;;;;15.07;3.85;;;4.60;99.90;;;;;;5100488;28;20341;-63
2021/12/07 09:50:04;;;;;;;9.43;3.28;;;4.80;99.90;;;;;;5099821;28;20074;-63
2021/12/07 09:52:30;;;;;;;14.20;3.15;;;5.10;99.90;;;;;;5100653;28;20057;-63
2021/12/07 09:54:56;;;;;;;10.60;3.55;;;5.30;99.90;;;;;;5100495;28;20383;-63
2021/12/07 09:57:22;;;;;;;16.55;3.50;;;5.40;99.90;;;;;;5100096;28;20166;-62
2021/12/07 09:59:49;;;;;;;11.15;2.60;;;5.50;99.90;;;;;;5100040;28;20088;-62
2021/12/07 10:02:15;;;;;;;11.40;3.08;;;5.60;99.90;;;;;;5100467;28;20039;-63
2021/12/07 10:04:41;;;;;;;9.85;3.45;;;5.70;99.90;;;;;;5100082;28;20032;-62
2021/12/07 10:07:10;;;;;;;17.13;3.40;;;5.70;99.90;;;;;;5100129;28;20133;-64
2021/12/07 10:09:37;;;;;;;7.93;2.55;;;6.00;99.90;;;;;;5100223;28;20016;-63
2021/12/07 10:12:06;;;;;;;16.48;3.30;;;5.90;99.90;;;;;;5100044;28;20064;-64
2021/12/07 10:14:39;;;;;;;8.45;2.85;;;6.00;99.90;;;;;;5100242;28;20028;-63
2021/12/07 10:17:06;;;;;;;8.55;3.47;;;6.00;99.90;;;;;;5099971;28;20044;-62
2021/12/07 10:19:35;;;;;;;8.80;2.95;;;5.80;99.90;;;;;;5099272;28;20115;-64
2021/12/07 10:22:06;;;;;;;10.68;2.85;;;5.70;99.90;;;;;;5100166;28;20297;-64
2021/12/07 10:24:39;;;;;;;13.05;2.85;;;5.80;99.90;;;;;;5099245;28;20039;-63
2021/12/07 10:27:08;;;;;;;11.35;2.88;;;6.20;99.90;;;;;;5099818;28;20099;-61
2021/12/07 10:29:35;;;;;;;10.45;2.80;;;6.50;99.90;;;;;;5099691;28;20302;-62
2021/12/07 10:32:05;;;;;;;9.23;2.53;;;7.00;99.90;;;;;;5099713;28;20307;-63
2021/12/07 10:34:35;;;;;;;10.70;3.15;;;6.70;99.90;;;;;;5099627;28;20031;-63
2021/12/07 10:37:12;;;;;;;9.30;2.55;;;6.70;99.90;;;;;;5099557;28;20032;-64
2021/12/07 10:39:48;;;;;;;11.00;3.10;;;6.70;99.90;;;;;;5098664;28;20035;-64
2021/12/07 10:42:21;;;;;;;12.88;3.17;;;6.90;99.90;;;;;;5099455;28;20034;-63
2021/12/07 10:44:48;;;;;;;8.55;2.55;;;7.10;99.90;;;;;;5099395;28;20387;-64
2021/12/07 10:47:20;;;;;;;14.93;2.90;;;7.20;99.90;;;;;;5099254;28;20030;-64
2021/12/07 10:49:46;;;;;;;9.40;2.65;;;7.30;99.90;;;;;;5099270;28;20035;-64
2021/12/07 10:52:20;;;;;;;11.77;2.58;;;7.80;99.90;;;;;;5099245;28;20224;-65
2021/12/07 10:54:52;;;;;;;8.80;2.90;;;8.10;99.90;;;;;;5099198;28;20111;-65
2021/12/07 10:57:20;;;;;;;;;;;8.10;99.90;;;;;;5099511;28;20082;-64
2021/12/07 11:00:00;;;;;;;8.38;2.10;;;8.10;99.90;;;;;;5098172;28;20225;-64
2021/12/07 11:02:30;;;;;;;7.40;2.78;;;8.20;99.90;;;;;;5098460;28;20043;-65
2021/12/07 11:04:57;;;;;;;6.15;2.05;;;8.40;99.90;;;;;;5099131;28;20032;-65
2021/12/07 11:07:26;;;;;;;11.73;3.00;;;8.40;99.90;;;;;;5098969;28;20124;-64
2021/12/07 11:10:10;;;;;;;10.45;2.50;;;8.60;99.90;;;;;;5099048;28;20039;-64
2021/12/07 11:13:21;;;;;;;10.57;2.55;;;8.80;99.90;;;;;;5098773;28;20346;-64
2021/12/07 11:15:50;;;;;;;16.25;2.63;;;8.60;99.90;;;;;;5097470;28;20108;-64
2021/12/07 11:18:20;;;;;;;9.98;2.95;;;8.20;99.90;;;;;;5098612;28;20355;-64
2021/12/07 11:20:46;;;;;;;7.90;2.35;;;8.10;99.90;;;;;;5098730;28;20367;-64
2021/12/07 11:23:21;;;;;;;10.20;2.45;;;8.00;99.90;;;;;;5098692;28;20035;-64
2021/12/07 11:31:17;;;;;;;10.82;2.63;;;7.00;99.90;;;;;;5098500;28;20127;-63
2021/12/07 11:33:43;;;;;;;9.43;1.90;;;6.80;99.90;;;;;;5097710;28;20074;-63
2021/12/07 11:36:29;;;;;;;12.48;2.25;;;6.80;99.90;;;;;;5098367;28;20059;-63
2021/12/07 11:38:57;;;;;;;9.43;2.70;;;7.00;99.90;;;;;;5098661;28;20466;-64
2021/12/07 11:41:33;;;;;;;11.90;2.75;;;7.20;99.90;;;;;;5098328;28;20115;-64
2021/12/07 11:44:06;;;;;;;10.18;2.15;;;7.50;99.90;;;;;;5098240;28;20107;-64
2021/12/07 11:46:45;;;;;;;11.40;2.70;;;7.70;99.90;;;;;;5098245;28;20426;-63
2021/12/07 11:49:21;;;;;;;11.50;2.53;;;7.50;99.90;;;;;;5098074;28;20338;-62
2021/12/07 11:51:50;;;;;;;11.52;2.85;;;7.10;99.90;;;;;;5098704;28;20103;-64
2021/12/07 11:54:18;;;;;;;10.20;2.78;;;7.10;99.90;;;;;;5097993;28;20035;-64
2021/12/07 11:56:46;;;;;;;11.43;2.78;;;7.10;99.90;;;;;;5098063;28;20039;-63
2021/12/07 11:59:12;;;;;;;10.75;2.35;;;7.20;99.90;;;;;;5097426;28;20093;-63
2021/12/07 12:01:39;;;;;;;11.05;2.35;;;7.30;99.90;;;;;;5098098;28;20395;-62
2021/12/07 12:04:05;;;;;;;8.68;2.30;;;7.10;99.90;;;;;;5097158;28;20028;-63
2021/12/07 12:06:32;;;;;;;12.93;2.28;;;7.00;99.90;;;;;;5097805;28;20056;-63
2021/12/07 12:08:59;;;;;;;10.15;2.55;;;7.10;99.90;;;;;;5097824;28;20265;-63
2021/12/07 12:11:41;;;;;;;11.10;2.38;;;6.90;99.90;;;;;;5097813;28;20102;-63
2021/12/07 12:14:38;;;;;;;7.05;1.80;;;6.90;99.90;;;;;;5098031;28;20375;-63
2021/12/07 12:17:13;;;;;;;10.77;2.15;;;6.90;99.90;;;;;;5097420;28;20368;-64
2021/12/07 12:20:00;;;;;;;8.20;2.08;;;7.10;99.90;;;;;;5097774;28;20306;-63
2021/12/07 12:22:42;;;;;;;12.15;2.22;;;7.20;99.90;;;;;;5097861;28;20062;-62
2021/12/07 12:25:13;;;;;;;8.05;1.98;;;6.90;99.90;;;;;;5096818;28;20039;-63
2021/12/07 12:27:41;;;;;;;10.95;2.20;;;6.80;99.90;;;;;;5096766;28;20111;-63
2021/12/07 12:30:32;;;;;;;7.97;1.80;;;6.70;99.90;;;;;;5096712;28;20410;-62
2021/12/07 12:33:26;;;;;;;9.38;2.15;;;6.70;99.90;;;;;;5094871;28;20319;-63
2021/12/07 12:35:54;;;;;;;9.18;2.80;;;6.70;99.90;;;;;;5096074;28;20084;-63
2021/12/07 12:38:26;;;;;;;11.18;2.70;;;6.90;99.90;;;;;;5097898;28;20036;-63
2021/12/07 12:41:04;;;;;;;9.32;2.83;;;6.80;99.90;;;;;;5097163;28;20428;-62
2021/12/07 12:43:53;;;;;;;12.38;2.80;;;6.60;99.90;;;;;;5097340;28;20115;-63
2021/12/07 12:46:33;;;;;;;9.25;3.30;;;6.60;99.90;;;;;;5096321;28;20073;-64
2021/12/07 12:49:03;;;;;;;8.77;2.70;;;6.60;99.90;;;;;;5097548;28;20036;-63
2021/12/07 12:51:31;;;;;;;12.52;3.47;;;6.80;99.90;;;;;;5097193;28;20064;-63
2021/12/07 12:53:58;;;;;;;11.77;3.08;;;7.10;99.90;;;;;;5097028;28;20028;-63
2021/12/07 12:56:29;;;;;;;10.98;3.20;;;7.10;99.90;;;;;;5079696;28;20032;-64
2021/12/07 12:59:00;;;;;;;12.93;2.88;;;7.20;99.90;;;;;;5096977;28;20103;-64
2021/12/07 13:01:29;;;;;;;10.95;2.97;;;7.20;99.90;;;;;;5097043;28;20035;-62
2021/12/07 13:04:03;;;;;;;9.10;3.00;;;7.20;99.90;;;;;;5096854;28;20036;-62
2021/12/07 13:06:39;;;;;;;10.05;2.97;;;7.30;99.90;;;;;;5096152;28;20107;-61
2021/12/07 13:09:09;;;;;;;10.68;2.90;;;6.90;99.90;;;;;;5097109;28;20334;-62
2021/12/07 13:11:50;;;;;;;14.63;3.33;;;6.80;99.90;;;;;;5099032;28;20464;-62
2021/12/07 13:14:22;;;;;;;10.70;3.05;;;6.90;99.90;;;;;;5100984;28;20327;-64
2021/12/07 13:16:59;;;;;;;12.10;3.20;;;6.80;99.90;;;;;;5100910;28;20062;-62
2021/12/07 13:19:28;;;;;;;8.95;3.00;;;6.70;99.90;;;;;;5100812;28;20047;-62
2021/12/07 13:21:55;;;;;;;10.10;2.95;;;6.90;99.90;;;;;;5101010;28;20028;-62
2021/12/07 13:24:35;;;;;;;10.85;2.70;;;7.20;99.90;;;;;;5100862;28;20028;-62
2021/12/07 13:27:10;;;;;;;8.50;2.92;;;7.20;99.90;;;;;;5101185;28;20305;-63
2021/12/07 13:29:37;;;;;;;8.55;2.88;;;7.00;99.90;;;;;;5100782;28;20032;-63
2021/12/07 13:32:05;;;;;;;13.07;3.17;;;6.90;99.90;;;;;;5100739;28;20336;-62
2021/12/07 13:34:33;;;;;;;7.57;3.05;;;6.80;99.90;;;;;;5101079;28;20032;-63
2021/12/07 13:37:02;;;;;;;11.15;3.03;;;6.60;99.90;;;;;;5100644;28;20036;-62
2021/12/07 13:39:38;;;;;;;6.90;2.30;;;6.70;99.90;;;;;;5100149;28;20051;-63
2021/12/07 13:42:04;;;;;;;11.60;2.65;;;6.50;99.90;;;;;;5101297;28;20039;-63
2021/12/07 13:44:40;;;;;;;8.60;2.30;;;6.40;99.90;;;;;;5101108;28;20024;-63
2021/12/07 13:47:18;;;;;;;7.57;2.50;;;6.50;99.90;;;;;;5100624;28;20274;-62
2021/12/07 13:50:07;;;;;;;8.68;2.60;;;6.20;99.90;;;;;;5100504;28;20034;-63
2021/12/07 13:52:45;;;;;;;8.18;2.47;;;6.10;99.90;;;;;;5100678;28;20394;-63
2021/12/07 13:55:14;;;;;;;7.32;3.17;;;6.10;99.90;;;;;;5100459;28;20299;-62
2021/12/07 13:57:43;;;;;;;14.90;3.10;;;6.10;99.90;;;;;;5099624;28;20162;-62
2021/12/07 14:00:14;;;;;;;9.65;3.42;;;6.00;99.90;;;;;;5100244;28;20020;-62
2021/12/07 14:02:44;;;;;;;10.32;3.00;;;6.00;99.90;;;;;;5100404;28;20051;-62
2021/12/07 14:05:14;;;;;;;7.18;2.42;;;6.10;99.90;;;;;;5100236;28;20409;-62
2021/12/07 14:07:41;;;;;;;9.82;2.58;;;6.10;99.90;;;;;;5100205;28;20035;-63
2021/12/07 14:10:17;;;;;;;7.00;2.95;;;6.10;99.90;;;;;;5099946;28;20035;-63
2021/12/07 14:12:45;;;;;;;11.10;2.72;;;6.00;99.90;;;;;;5100082;28;20488;-63
2021/12/07 14:15:17;;;;;;;9.05;2.90;;;6.10;99.90;;;;;;5100219;28;20081;-62
2021/12/07 14:17:50;;;;;;;11.50;2.70;;;6.10;99.90;;;;;;5099933;28;20044;-63
2021/12/07 14:20:29;;;;;;;8.60;2.63;;;6.20;99.90;;;;;;5099878;28;20066;-63
2021/12/07 14:22:55;;;;;;;11.43;2.88;;;6.20;99.90;;;;;;5099419;28;20036;-62
2021/12/07 14:25:21;;;;;;;8.25;3.22;;;6.20;99.90;;;;;;5099857;28;20024;-63
2021/12/07 14:27:47;;;;;;;8.27;3.30;;;6.20;99.90;;;;;;5100380;28;20032;-63
2021/12/07 14:30:15;;;;;;;7.38;3.08;;;6.20;99.90;;;;;;5099613;28;20425;-62
2021/12/07 14:32:45;;;;;;;8.82;2.90;;;6.10;99.90;;;;;;5100099;28;20064;-62
2021/12/07 14:35:12;;;;;;;8.00;2.78;;;6.00;99.90;;;;;;5099526;28;20310;-62
2021/12/07 14:37:37;;;;;;;8.32;3.20;;;5.90;99.90;;;;;;5099531;28;20043;-61
2021/12/07 14:40:06;;;;;;;7.35;2.83;;;5.90;99.90;;;;;;5099399;28;20249;-63
2021/12/07 14:42:32;;;;;;;13.52;2.92;;;6.00;99.90;;;;;;5099990;28;20024;-61
2021/12/07 14:44:59;;;;;;;7.93;2.78;;;6.00;99.90;;;;;;5099743;28;20073;-62